createdAt,value
2019-02-24T00:01:35.702Z,-0.70
2019-02-24T00:04:06.790Z,-0.70
2019-02-24T00:06:39.223Z,-0.70
2019-02-24T00:09:10.315Z,-0.70
2019-02-24T00:11:42.594Z,-0.60
2019-02-24T00:14:13.622Z,-0.70
2019-02-24T00:16:44.342Z,-0.80
2019-02-24T00:19:15.924Z,-0.80
2019-02-24T00:21:47.272Z,-0.70
2019-02-24T00:24:18.596Z,-0.70
2019-02-24T00:26:50.236Z,-0.70
2019-02-24T00:29:21.618Z,-0.60
2019-02-24T00:31:53.619Z,-0.60
2019-02-24T00:34:24.778Z,-0.60
2019-02-24T00:36:55.589Z,-0.50
2019-02-24T00:39:26.652Z,-0.50
2019-02-24T00:41:57.499Z,-0.60
2019-02-24T00:44:29.147Z,-0.60
2019-02-24T00:47:00.988Z,-0.60
2019-02-24T00:49:31.864Z,-0.50
2019-02-24T00:52:03.102Z,-0.50
2019-02-24T00:54:34.065Z,-0.50
2019-02-24T00:57:04.666Z,-0.50
2019-02-24T00:59:35.488Z,-0.50
2019-02-24T01:02:06.740Z,-0.50
2019-02-24T01:04:37.704Z,-0.50
2019-02-24T01:07:09.584Z,-0.50
2019-02-24T01:09:41.358Z,-0.40
2019-02-24T01:12:12.054Z,-0.30
2019-02-24T01:14:42.954Z,-0.30
2019-02-24T01:17:14.227Z,-0.30
2019-02-24T01:19:44.956Z,-0.40
2019-02-24T01:22:15.515Z,-0.30
2019-02-24T01:24:46.461Z,-0.30
2019-02-24T01:27:17.227Z,-0.30
2019-02-24T01:29:48.239Z,-0.40
2019-02-24T01:32:20.457Z,-0.40
2019-02-24T01:34:51.597Z,-0.40
2019-02-24T01:37:25.198Z,-0.40
2019-02-24T01:39:56.224Z,-0.50
2019-02-24T01:42:27.596Z,-0.50
2019-02-24T01:44:59.344Z,-0.50
2019-02-24T01:47:30.102Z,-0.50
2019-02-24T01:50:00.760Z,-0.60
2019-02-24T01:52:31.532Z,-0.60
2019-02-24T01:55:03.144Z,-0.60
2019-02-24T01:57:34.540Z,-0.60
2019-02-24T02:00:08.634Z,-0.50
2019-02-24T02:02:39.052Z,-0.50
2019-02-24T02:05:10.645Z,-0.50
2019-02-24T02:07:42.320Z,-0.50
2019-02-24T02:10:13.608Z,-0.60
2019-02-24T02:12:44.877Z,-0.60
2019-02-24T02:15:15.862Z,-0.80
2019-02-24T02:17:48.301Z,-0.70
2019-02-24T02:20:19.419Z,-0.70
2019-02-24T02:22:50.389Z,-0.70
2019-02-24T02:25:22.403Z,-0.60
2019-02-24T02:27:53.087Z,-0.40
2019-02-24T02:30:24.042Z,-0.30
2019-02-24T02:32:55.101Z,-0.20
2019-02-24T02:35:25.886Z,-0.20
2019-02-24T02:37:57.654Z,-0.10
2019-02-24T02:40:28.986Z,-0.20
2019-02-24T02:43:00.062Z,-0.20
2019-02-24T02:45:31.394Z,-0.20
2019-02-24T02:48:02.956Z,-0.30
2019-02-24T02:50:33.790Z,-0.30
2019-02-24T02:53:04.428Z,-0.40
2019-02-24T02:55:35.018Z,-0.40
2019-02-24T02:58:05.941Z,-0.20
2019-02-24T03:00:37.222Z,0.00
2019-02-24T03:03:08.274Z,0.10
2019-02-24T03:05:40.522Z,0.10
2019-02-24T03:08:13.571Z,0.20
2019-02-24T03:10:44.758Z,0.30
2019-02-24T03:13:15.929Z,0.30
2019-02-24T03:15:47.156Z,0.40
2019-02-24T03:18:18.351Z,0.40
2019-02-24T03:20:49.034Z,0.40
2019-02-24T03:23:19.697Z,0.50
2019-02-24T03:25:50.952Z,0.40
2019-02-24T03:28:21.858Z,0.40
2019-02-24T03:30:52.677Z,0.40
2019-02-24T03:33:23.142Z,0.30
2019-02-24T03:35:54.406Z,0.20
2019-02-24T03:38:25.605Z,0.30
2019-02-24T03:40:57.331Z,0.40
2019-02-24T03:43:28.318Z,0.40
2019-02-24T03:45:59.186Z,0.40
2019-02-24T03:48:30.798Z,0.40
2019-02-24T03:51:01.742Z,0.50
2019-02-24T03:53:32.553Z,0.50
2019-02-24T03:56:03.912Z,0.50
2019-02-24T03:58:34.776Z,0.50
2019-02-24T04:01:05.983Z,0.50
2019-02-24T04:03:37.030Z,0.60
2019-02-24T04:06:08.715Z,0.60
2019-02-24T04:08:39.505Z,0.60
2019-02-24T04:11:10.742Z,0.70
2019-02-24T04:13:41.501Z,0.70
2019-02-24T04:16:12.988Z,0.70
2019-02-24T04:18:44.619Z,0.80
2019-02-24T04:21:15.458Z,0.80
2019-02-24T04:23:46.982Z,0.80
2019-02-24T04:26:18.142Z,0.90
2019-02-24T04:28:49.429Z,0.90
2019-02-24T04:31:20.895Z,0.80
2019-02-24T04:33:53.468Z,0.70
2019-02-24T04:36:24.729Z,0.60
2019-02-24T04:38:55.587Z,0.60
2019-02-24T04:41:27.093Z,0.60
2019-02-24T04:43:58.858Z,0.70
2019-02-24T04:46:30.091Z,0.80
2019-02-24T04:49:00.887Z,0.90
2019-02-24T04:51:31.618Z,1.10
2019-02-24T04:54:02.483Z,1.10
2019-02-24T04:56:34.269Z,1.20
2019-02-24T04:59:05.095Z,1.20
2019-02-24T05:01:35.615Z,1.10
2019-02-24T05:04:06.447Z,0.90
2019-02-24T05:06:37.116Z,0.90
2019-02-24T05:09:08.468Z,0.90
2019-02-24T05:11:39.280Z,1.00
2019-02-24T05:14:10.092Z,1.10
2019-02-24T05:16:41.178Z,1.10
2019-02-24T05:19:12.408Z,1.20
2019-02-24T05:21:43.815Z,1.30
2019-02-24T05:24:15.125Z,1.30
2019-02-24T05:26:45.942Z,1.20
2019-02-24T05:29:16.676Z,1.30
2019-02-24T05:31:47.559Z,1.40
2019-02-24T05:34:18.216Z,1.40
2019-02-24T05:36:48.821Z,1.50
2019-02-24T05:39:20.070Z,1.60
2019-02-24T05:41:50.858Z,1.60
2019-02-24T05:44:21.950Z,1.60
2019-02-24T05:46:53.541Z,1.60
2019-02-24T05:49:23.802Z,1.60
2019-02-24T05:51:54.978Z,1.60
2019-02-24T05:54:25.897Z,1.60
2019-02-24T05:56:57.477Z,1.60
2019-02-24T05:59:28.522Z,1.70
2019-02-24T06:01:59.309Z,1.70
2019-02-24T06:04:29.945Z,1.60
2019-02-24T06:07:01.018Z,1.60
2019-02-24T06:09:32.388Z,1.50
2019-02-24T06:12:04.879Z,1.30
2019-02-24T06:14:35.740Z,1.20
2019-02-24T06:17:06.584Z,1.20
2019-02-24T06:19:38.024Z,1.40
2019-02-24T06:22:09.729Z,1.50
2019-02-24T06:24:40.196Z,1.60
2019-02-24T06:27:10.908Z,1.70
2019-02-24T06:29:41.676Z,1.70
2019-02-24T06:32:14.374Z,1.70
2019-02-24T06:34:45.014Z,1.70
2019-02-24T06:37:15.673Z,1.80
2019-02-24T06:39:46.750Z,2.00
2019-02-24T06:42:18.169Z,2.10
2019-02-24T06:44:49.388Z,2.10
2019-02-24T06:47:20.538Z,2.20
2019-02-24T06:49:51.882Z,2.30
2019-02-24T06:52:25.434Z,2.40
2019-02-24T06:54:56.457Z,2.40
2019-02-24T06:57:27.445Z,2.50
2019-02-24T06:59:58.267Z,2.50
2019-02-24T07:02:29.662Z,2.30
2019-02-24T07:05:00.613Z,2.30
2019-02-24T07:07:31.389Z,2.30
2019-02-24T07:10:03.591Z,2.30
2019-02-24T07:12:35.067Z,2.20
2019-02-24T07:15:06.741Z,2.30
2019-02-24T07:17:38.389Z,2.50
2019-02-24T07:20:13.203Z,2.40
2019-02-24T07:22:43.994Z,2.50
2019-02-24T07:25:15.039Z,2.60
2019-02-24T07:27:45.883Z,2.50
2019-02-24T07:30:23.163Z,2.50
2019-02-24T07:32:49.479Z,2.20
2019-02-24T07:35:20.370Z,2.00
2019-02-24T07:37:51.798Z,1.90
2019-02-24T07:40:23.703Z,1.80
2019-02-24T07:42:56.316Z,1.70
2019-02-24T07:45:27.273Z,1.70
2019-02-24T07:47:58.366Z,1.70
2019-02-24T07:50:29.969Z,1.80
2019-02-24T07:53:00.746Z,2.00
2019-02-24T07:55:31.869Z,2.10
2019-02-24T07:58:03.666Z,2.30
2019-02-24T08:00:35.340Z,2.30
2019-02-24T08:03:07.062Z,2.20
2019-02-24T08:05:37.995Z,2.20
2019-02-24T08:08:16.232Z,2.10
2019-02-24T08:10:41.426Z,2.20
2019-02-24T08:13:13.510Z,2.30
2019-02-24T08:15:44.411Z,2.30
2019-02-24T08:18:15.909Z,2.20
2019-02-24T08:20:47.122Z,2.30
2019-02-24T08:23:19.427Z,2.40
2019-02-24T08:25:50.904Z,2.50
2019-02-24T08:28:21.426Z,2.60
2019-02-24T08:30:52.816Z,2.80
2019-02-24T08:33:23.445Z,3.10
2019-02-24T08:35:55.427Z,3.30
2019-02-24T08:38:26.184Z,3.30
2019-02-24T08:40:56.529Z,3.40
2019-02-24T08:43:28.076Z,3.40
2019-02-24T08:45:58.781Z,3.50
2019-02-24T08:48:29.655Z,3.60
2019-02-24T08:51:00.839Z,3.60
2019-02-24T08:53:32.266Z,3.70
2019-02-24T08:56:03.390Z,3.90
2019-02-24T08:58:35.985Z,4.20
2019-02-24T09:01:06.665Z,4.30
2019-02-24T09:03:37.915Z,4.40
2019-02-24T09:06:08.916Z,4.50
2019-02-24T09:08:39.860Z,4.70
2019-02-24T09:11:13.204Z,4.90
2019-02-24T09:13:44.378Z,5.30
2019-02-24T09:16:15.825Z,5.70
2019-02-24T09:18:56.599Z,5.60
2019-02-24T09:21:28.037Z,5.70
2019-02-24T09:23:59.703Z,5.70
2019-02-24T09:26:31.162Z,5.80
2019-02-24T09:29:02.609Z,5.70
2019-02-24T09:31:33.624Z,5.90
2019-02-24T09:34:04.674Z,5.60
2019-02-24T09:36:35.857Z,5.60
2019-02-24T09:39:08.310Z,5.70
2019-02-24T09:41:39.715Z,5.60
2019-02-24T09:44:11.724Z,5.60
2019-02-24T09:46:43.784Z,5.50
2019-02-24T09:49:15.226Z,5.30
2019-02-24T09:51:46.604Z,5.30
2019-02-24T09:54:17.591Z,5.30
2019-02-24T09:56:51.120Z,5.30
2019-02-24T09:59:25.337Z,5.40
2019-02-24T10:01:57.020Z,5.50
2019-02-24T10:04:28.882Z,5.70
2019-02-24T10:07:00.099Z,5.60
2019-02-24T10:09:32.250Z,5.80
2019-02-24T10:12:03.810Z,5.90
2019-02-24T10:14:34.912Z,6.00
2019-02-24T10:17:05.734Z,6.10
2019-02-24T10:19:36.622Z,6.10
2019-02-24T10:22:07.353Z,6.10
2019-02-24T10:24:38.178Z,6.10
2019-02-24T10:27:10.379Z,6.00
2019-02-24T10:29:42.612Z,6.10
2019-02-24T10:32:15.177Z,6.30
2019-02-24T10:34:46.300Z,6.40
2019-02-24T10:37:17.742Z,6.60
2019-02-24T10:39:49.302Z,7.00
2019-02-24T10:42:19.928Z,7.20
2019-02-24T10:44:51.432Z,7.40
2019-02-24T10:47:23.432Z,7.50
2019-02-24T10:49:55.162Z,7.60
2019-02-24T10:52:26.506Z,7.50
2019-02-24T10:54:57.486Z,7.80
2019-02-24T10:57:29.902Z,8.10
2019-02-24T11:00:01.573Z,8.80
2019-02-24T11:02:33.357Z,9.20
2019-02-24T11:05:03.991Z,9.50
2019-02-24T11:07:34.971Z,10.30
2019-02-24T11:10:07.331Z,11.20
2019-02-24T11:12:38.182Z,12.70
2019-02-24T11:15:10.447Z,13.80
2019-02-24T11:17:42.803Z,14.10
2019-02-24T11:20:13.825Z,14.60
2019-02-24T11:22:44.546Z,14.40
2019-02-24T11:25:15.935Z,13.80
2019-02-24T11:27:47.510Z,12.80
2019-02-24T11:30:19.704Z,12.10
2019-02-24T11:32:50.474Z,11.60
2019-02-24T11:35:22.204Z,11.00
2019-02-24T11:37:53.472Z,10.50
2019-02-24T11:40:24.798Z,10.50
2019-02-24T11:42:55.736Z,10.60
2019-02-24T11:45:27.250Z,10.90
2019-02-24T11:47:58.584Z,11.40
2019-02-24T11:50:30.353Z,11.80
2019-02-24T11:53:02.522Z,12.30
2019-02-24T11:55:34.454Z,12.70
2019-02-24T11:58:06.277Z,13.40
2019-02-24T12:00:37.723Z,13.70
2019-02-24T12:03:09.216Z,14.80
2019-02-24T12:05:40.852Z,15.50
2019-02-24T12:08:12.057Z,16.00
2019-02-24T12:10:44.295Z,16.70
2019-02-24T12:13:17.627Z,16.70
2019-02-24T12:15:48.821Z,17.10
2019-02-24T12:18:19.382Z,17.60
2019-02-24T12:20:49.952Z,18.10
2019-02-24T12:23:20.319Z,18.30
2019-02-24T12:25:51.117Z,18.10
2019-02-24T12:28:21.603Z,18.20
2019-02-24T12:30:52.143Z,18.70
2019-02-24T12:33:23.072Z,19.20
2019-02-24T12:35:53.930Z,20.10
2019-02-24T12:38:24.431Z,21.30
2019-02-24T12:40:55.064Z,22.10
2019-02-24T12:43:25.804Z,22.40
2019-02-24T12:45:56.526Z,22.50
2019-02-24T12:48:27.246Z,20.90
2019-02-24T12:50:57.962Z,20.50
2019-02-24T12:53:28.707Z,20.40
2019-02-24T12:56:00.287Z,21.10
2019-02-24T12:58:31.722Z,21.40
2019-02-24T13:01:02.463Z,20.80
2019-02-24T13:03:33.167Z,20.50
2019-02-24T13:06:04.156Z,21.20
2019-02-24T13:08:34.918Z,22.30
2019-02-24T13:11:05.694Z,22.60
2019-02-24T13:13:41.785Z,22.90
2019-02-24T13:16:18.208Z,22.30
2019-02-24T13:19:03.203Z,22.10
2019-02-24T13:21:44.154Z,21.20
2019-02-24T13:24:44.167Z,19.80
2019-02-24T13:27:23.923Z,18.70
2019-02-24T13:30:00.994Z,17.60
2019-02-24T13:32:35.679Z,16.90
2019-02-24T13:35:09.104Z,16.30
2019-02-24T13:37:48.188Z,15.80
2019-02-24T13:40:23.189Z,15.70
2019-02-24T13:42:59.176Z,14.90
2019-02-24T13:45:42.336Z,14.30
2019-02-24T13:48:23.367Z,13.90
2019-02-24T13:50:59.905Z,13.40
2019-02-24T13:53:38.257Z,13.00
2019-02-24T13:56:14.634Z,12.90
2019-02-24T13:58:51.617Z,12.50
2019-02-24T14:01:28.942Z,12.60
2019-02-24T14:04:05.936Z,12.70
2019-02-24T14:07:02.968Z,12.60
2019-02-24T14:09:43.507Z,12.60
2019-02-24T14:12:19.830Z,12.50
2019-02-24T14:14:55.498Z,12.70
2019-02-24T14:17:30.578Z,12.80
2019-02-24T14:20:08.680Z,12.80
2019-02-24T14:22:40.062Z,12.70
2019-02-24T14:25:11.112Z,12.60
2019-02-24T14:27:42.404Z,12.70
2019-02-24T14:30:14.046Z,12.70
2019-02-24T14:32:45.697Z,12.70
2019-02-24T14:35:31.821Z,12.80
2019-02-24T14:38:23.090Z,12.80
2019-02-24T14:41:08.798Z,12.70
2019-02-24T14:43:51.908Z,12.50
2019-02-24T14:47:04.623Z,12.50
2019-02-24T14:49:36.644Z,12.40
2019-02-24T14:52:11.346Z,12.60
2019-02-24T14:54:42.955Z,12.50
2019-02-24T14:57:14.752Z,12.30
2019-02-24T14:59:46.994Z,12.10
2019-02-24T15:02:19.322Z,11.70
2019-02-24T15:04:51.386Z,11.60
2019-02-24T15:07:23.120Z,11.40
2019-02-24T15:09:55.501Z,11.20
2019-02-24T15:12:27.846Z,11.00
2019-02-24T15:15:00.153Z,10.90
2019-02-24T15:17:32.074Z,11.00
2019-02-24T15:20:04.052Z,11.10
2019-02-24T15:22:36.561Z,11.00
2019-02-24T15:25:10.546Z,11.00
2019-02-24T15:27:42.513Z,11.00
2019-02-24T15:30:20.700Z,11.10
2019-02-24T15:32:52.990Z,11.10
2019-02-24T15:35:25.038Z,10.80
2019-02-24T15:37:57.191Z,10.90
2019-02-24T15:40:30.673Z,10.90
2019-02-24T15:43:06.536Z,11.00
2019-02-24T15:45:38.282Z,11.20
2019-02-24T15:48:09.895Z,11.10
2019-02-24T15:50:43.069Z,11.00
2019-02-24T15:53:14.574Z,10.80
2019-02-24T15:55:46.040Z,10.80
2019-02-24T15:58:18.206Z,10.60
2019-02-24T16:00:50.549Z,10.50
2019-02-24T16:03:22.609Z,10.50
2019-02-24T16:05:54.594Z,10.30
2019-02-24T16:08:25.782Z,10.30
2019-02-24T16:10:57.349Z,10.20
2019-02-24T16:13:29.271Z,10.20
2019-02-24T16:16:01.666Z,10.00
2019-02-24T16:18:33.779Z,9.80
2019-02-24T16:21:05.856Z,9.60
2019-02-24T16:23:37.632Z,9.40
2019-02-24T16:26:09.716Z,9.20
2019-02-24T16:28:41.934Z,9.00
2019-02-24T16:31:14.298Z,8.90
2019-02-24T16:33:45.444Z,9.10
2019-02-24T16:36:17.447Z,9.20
2019-02-24T16:38:49.620Z,9.10
2019-02-24T16:41:20.946Z,9.00
2019-02-24T16:43:51.913Z,9.20
2019-02-24T16:46:24.034Z,9.40
2019-02-24T16:48:56.114Z,9.30
2019-02-24T16:51:27.852Z,9.20
2019-02-24T16:53:59.507Z,9.20
2019-02-24T16:56:32.114Z,9.20
2019-02-24T16:59:03.971Z,9.20
2019-02-24T17:01:35.932Z,9.00
2019-02-24T17:04:08.696Z,9.20
2019-02-24T17:06:41.263Z,9.10
2019-02-24T17:09:13.371Z,9.10
2019-02-24T17:11:45.423Z,9.10
2019-02-24T17:14:17.496Z,9.00
2019-02-24T17:16:49.149Z,9.10
2019-02-24T17:19:21.136Z,9.20
2019-02-24T17:21:53.346Z,9.30
2019-02-24T17:24:25.265Z,9.20
2019-02-24T17:26:57.253Z,9.10
2019-02-24T17:29:29.422Z,9.00
2019-02-24T17:32:05.928Z,9.00
2019-02-24T17:34:37.908Z,9.10
2019-02-24T17:37:09.841Z,9.00
2019-02-24T17:39:41.744Z,9.10
2019-02-24T17:42:13.108Z,9.00
2019-02-24T17:44:47.999Z,9.00
2019-02-24T17:47:20.791Z,9.00
2019-02-24T17:49:53.228Z,9.00
2019-02-24T17:52:25.982Z,9.00
2019-02-24T17:54:59.541Z,8.90
2019-02-24T17:57:32.842Z,8.80
2019-02-24T18:00:05.939Z,8.80
2019-02-24T18:02:38.054Z,8.90
2019-02-24T18:05:09.649Z,8.90
2019-02-24T18:07:41.495Z,8.80
2019-02-24T18:10:14.201Z,8.70
2019-02-24T18:12:45.518Z,8.60
2019-02-24T18:15:17.881Z,8.50
2019-02-24T18:17:49.747Z,8.40
2019-02-24T18:20:21.403Z,8.20
2019-02-24T18:22:54.217Z,8.20
2019-02-24T18:25:26.666Z,8.30
2019-02-24T18:27:59.368Z,8.30
2019-02-24T18:30:31.491Z,8.30
2019-02-24T18:33:04.355Z,8.30
2019-02-24T18:35:39.187Z,8.30
2019-02-24T18:38:15.067Z,8.30
2019-02-24T18:40:47.543Z,8.30
2019-02-24T18:43:19.201Z,8.30
2019-02-24T18:45:52.464Z,8.20
2019-02-24T18:48:24.366Z,8.20
2019-02-24T18:50:56.517Z,8.10
2019-02-24T18:53:28.761Z,8.20
2019-02-24T18:56:05.149Z,8.20
2019-02-24T18:58:37.622Z,8.10
2019-02-24T19:01:10.598Z,8.00
2019-02-24T19:03:43.196Z,8.00
2019-02-24T19:06:14.316Z,7.90
2019-02-24T19:08:47.206Z,8.00
2019-02-24T19:11:19.371Z,8.00
2019-02-24T19:13:58.266Z,7.80
2019-02-24T19:16:35.494Z,7.70
2019-02-24T19:19:09.316Z,7.60
2019-02-24T19:21:49.474Z,7.50
2019-02-24T19:24:29.228Z,7.30
2019-02-24T19:27:05.566Z,7.20
2019-02-24T19:29:42.918Z,7.10
2019-02-24T19:32:19.740Z,7.00
2019-02-24T19:34:56.710Z,7.00
2019-02-24T19:37:30.147Z,6.80
2019-02-24T19:40:04.373Z,6.70
2019-02-24T19:42:40.434Z,6.60
2019-02-24T19:45:19.382Z,6.50
2019-02-24T19:47:54.229Z,6.50
2019-02-24T19:50:28.527Z,6.40
2019-02-24T19:53:00.460Z,6.50
2019-02-24T19:55:35.767Z,6.40
2019-02-24T19:58:25.622Z,6.50
2019-02-24T20:00:59.768Z,6.50
2019-02-24T20:03:32.090Z,6.60
2019-02-24T20:06:03.893Z,6.70
2019-02-24T20:08:35.368Z,6.80
2019-02-24T20:11:06.818Z,6.80
2019-02-24T20:13:39.052Z,6.80
2019-02-24T20:16:11.359Z,6.70
2019-02-24T20:18:42.954Z,6.70
2019-02-24T20:21:14.319Z,6.60
2019-02-24T20:23:47.933Z,6.50
2019-02-24T20:26:19.890Z,6.40
2019-02-24T20:29:07.538Z,6.40
2019-02-24T20:31:43.182Z,6.20
2019-02-24T20:34:25.199Z,6.20
2019-02-24T20:36:57.086Z,6.20
2019-02-24T20:39:32.825Z,6.20
2019-02-24T20:42:20.076Z,6.10
2019-02-24T20:44:57.410Z,6.00
2019-02-24T20:47:34.226Z,6.00
2019-02-24T20:50:10.410Z,6.00
2019-02-24T20:52:49.957Z,6.00
2019-02-24T20:55:26.644Z,5.90
2019-02-24T20:58:00.870Z,5.90
2019-02-24T21:00:39.428Z,5.90
2019-02-24T21:03:17.650Z,5.90
2019-02-24T21:05:53.870Z,5.90
2019-02-24T21:08:34.726Z,5.80
2019-02-24T21:11:10.667Z,5.80
2019-02-24T21:13:47.777Z,5.80
2019-02-24T21:16:25.864Z,5.70
2019-02-24T21:19:00.912Z,5.70
2019-02-24T21:21:37.426Z,5.70
2019-02-24T21:24:11.617Z,5.60
2019-02-24T21:26:44.126Z,5.60
2019-02-24T21:29:15.047Z,5.60
2019-02-24T21:31:46.282Z,5.60
2019-02-24T21:34:17.192Z,5.60
2019-02-24T21:36:48.454Z,5.60
2019-02-24T21:39:19.865Z,5.60
2019-02-24T21:41:53.658Z,5.50
2019-02-24T21:44:24.402Z,5.50
2019-02-24T21:46:55.342Z,5.60
2019-02-24T21:49:26.098Z,5.60
2019-02-24T21:51:57.202Z,5.50
2019-02-24T21:54:28.252Z,5.50
2019-02-24T21:56:59.070Z,5.40
2019-02-24T21:59:36.820Z,5.30
2019-02-24T22:02:01.753Z,5.20
2019-02-24T22:04:32.193Z,5.20
2019-02-24T22:07:02.623Z,5.20
2019-02-24T22:09:33.394Z,5.20
2019-02-24T22:12:04.037Z,5.20
2019-02-24T22:14:35.699Z,5.20
2019-02-24T22:17:07.120Z,5.20
2019-02-24T22:19:41.873Z,5.20
2019-02-24T22:22:14.391Z,5.20
2019-02-24T22:24:45.756Z,5.20
2019-02-24T22:27:17.020Z,5.10
2019-02-24T22:29:47.731Z,5.10
2019-02-24T22:32:20.082Z,5.00
2019-02-24T22:34:51.011Z,5.00
2019-02-24T22:37:22.530Z,5.00
2019-02-24T22:39:53.186Z,4.90
2019-02-24T22:42:24.732Z,4.90
2019-02-24T22:44:55.425Z,4.90
2019-02-24T22:47:26.393Z,4.90
2019-02-24T22:49:57.454Z,4.90
2019-02-24T22:52:28.663Z,4.90
2019-02-24T22:55:00.332Z,4.90
2019-02-24T22:57:32.980Z,4.90
2019-02-24T23:00:05.151Z,4.90
2019-02-24T23:02:37.146Z,4.90
2019-02-24T23:05:08.595Z,4.90
2019-02-24T23:07:40.693Z,4.80
2019-02-24T23:10:12.704Z,4.70
2019-02-24T23:12:43.443Z,4.60
2019-02-24T23:15:15.244Z,4.60
2019-02-24T23:17:46.309Z,4.50
2019-02-24T23:20:17.834Z,4.50
2019-02-24T23:22:48.890Z,4.50
2019-02-24T23:25:20.739Z,4.50
2019-02-24T23:27:51.333Z,4.60
2019-02-24T23:30:22.469Z,4.50
2019-02-24T23:32:53.469Z,4.50
2019-02-24T23:35:24.338Z,4.40
2019-02-24T23:37:55.269Z,4.40
2019-02-24T23:40:26.071Z,4.50
2019-02-24T23:42:56.769Z,4.50
2019-02-24T23:45:27.695Z,4.60
2019-02-24T23:48:00.058Z,4.50
2019-02-24T23:50:30.962Z,4.50
2019-02-24T23:53:01.959Z,4.50
2019-02-24T23:55:32.729Z,4.50
2019-02-24T23:58:03.834Z,4.50
